sensor_id;sensor_type;location;lat;lon;timestamp;pressure;altitude;pressure_sealevel;temperature;humidity
69239;BME280;56349;51.816;-0.026;2023-04-24T00:01:10;99902.05;;;26.89;28.53
69239;BME280;56349;51.816;-0.026;2023-04-24T00:03:35;99901.68;;;26.64;28.54
69239;BME280;56349;51.816;-0.026;2023-04-24T00:06:00;99904.15;;;26.62;28.53
69239;BME280;56349;51.816;-0.026;2023-04-24T00:08:25;99903.93;;;26.82;28.53
69239;BME280;56349;51.816;-0.026;2023-04-24T00:10:51;99908.12;;;26.78;28.54
69239;BME280;56349;51.816;-0.026;2023-04-24T00:13:18;99911.09;;;26.77;28.54
69239;BME280;56349;51.816;-0.026;2023-04-24T00:15:43;99916.42;;;26.75;28.53
69239;BME280;56349;51.816;-0.026;2023-04-24T00:18:08;99911.91;;;26.72;28.53
69239;BME280;56349;51.816;-0.026;2023-04-24T00:20:34;99917.95;;;26.72;28.50
69239;BME280;56349;51.816;-0.026;2023-04-24T00:23:01;99920.69;;;26.68;28.46
69239;BME280;56349;51.816;-0.026;2023-04-24T00:25:26;99925.42;;;26.57;28.46
69239;BME280;56349;51.816;-0.026;2023-04-24T00:27:52;99929.69;;;26.16;28.51
69239;BME280;56349;51.816;-0.026;2023-04-24T00:30:18;99934.90;;;26.16;28.61
69239;BME280;56349;51.816;-0.026;2023-04-24T00:32:44;99933.00;;;26.16;28.74
69239;BME280;56349;51.816;-0.026;2023-04-24T00:35:10;99930.28;;;25.84;28.94
69239;BME280;56349;51.816;-0.026;2023-04-24T00:37:36;99926.15;;;25.69;29.19
69239;BME280;56349;51.816;-0.026;2023-04-24T00:40:02;99927.18;;;25.53;29.47
69239;BME280;56349;51.816;-0.026;2023-04-24T00:42:27;99927.70;;;25.16;29.77
69239;BME280;56349;51.816;-0.026;2023-04-24T00:44:53;99926.98;;;25.08;30.06
69239;BME280;56349;51.816;-0.026;2023-04-24T00:47:19;99936.45;;;24.76;30.35
69239;BME280;56349;51.816;-0.026;2023-04-24T00:49:45;99940.18;;;24.44;30.64
69239;BME280;56349;51.816;-0.026;2023-04-24T00:52:11;99944.19;;;24.13;30.92
69239;BME280;56349;51.816;-0.026;2023-04-24T00:54:37;99948.10;;;24.29;31.18
69239;BME280;56349;51.816;-0.026;2023-04-24T00:57:03;99951.87;;;23.81;31.43
69239;BME280;56349;51.816;-0.026;2023-04-24T00:59:28;99957.54;;;23.81;31.65
69239;BME280;56349;51.816;-0.026;2023-04-24T01:01:55;99964.05;;;23.58;31.88
69239;BME280;56349;51.816;-0.026;2023-04-24T01:04:20;99964.62;;;23.37;32.11
69239;BME280;56349;51.816;-0.026;2023-04-24T01:06:46;99966.61;;;23.44;32.32
69239;BME280;56349;51.816;-0.026;2023-04-24T01:09:12;99969.00;;;23.47;32.53
69239;BME280;56349;51.816;-0.026;2023-04-24T01:11:37;99970.77;;;23.10;32.71
69239;BME280;56349;51.816;-0.026;2023-04-24T01:14:03;99970.92;;;23.18;32.87
69239;BME280;56349;51.816;-0.026;2023-04-24T01:16:28;99972.71;;;23.01;33.05
69239;BME280;56349;51.816;-0.026;2023-04-24T01:18:54;99974.80;;;22.85;33.23
69239;BME280;56349;51.816;-0.026;2023-04-24T01:21:21;99975.28;;;22.70;33.40
69239;BME280;56349;51.816;-0.026;2023-04-24T01:23:46;99975.91;;;22.56;33.56
69239;BME280;56349;51.816;-0.026;2023-04-24T01:26:11;99980.87;;;22.45;33.71
69239;BME280;56349;51.816;-0.026;2023-04-24T01:28:37;99982.19;;;22.32;33.88
69239;BME280;56349;51.816;-0.026;2023-04-24T01:31:02;99985.82;;;22.20;34.02
69239;BME280;56349;51.816;-0.026;2023-04-24T01:33:28;99990.97;;;22.35;34.18
69239;BME280;56349;51.816;-0.026;2023-04-24T01:35:54;99991.75;;;22.46;34.31
69239;BME280;56349;51.816;-0.026;2023-04-24T01:38:19;99995.12;;;22.37;34.46
69239;BME280;56349;51.816;-0.026;2023-04-24T01:40:45;99999.15;;;22.29;34.57
69239;BME280;56349;51.816;-0.026;2023-04-24T01:43:11;99997.48;;;22.18;34.70
69239;BME280;56349;51.816;-0.026;2023-04-24T01:45:36;99996.08;;;22.08;34.83
69239;BME280;56349;51.816;-0.026;2023-04-24T01:48:02;100001.31;;;22.21;34.97
69239;BME280;56349;51.816;-0.026;2023-04-24T01:50:27;99999.67;;;22.11;35.10
69239;BME280;56349;51.816;-0.026;2023-04-24T01:52:53;100002.91;;;21.80;35.25
69239;BME280;56349;51.816;-0.026;2023-04-24T01:55:19;100001.61;;;21.72;35.36
69239;BME280;56349;51.816;-0.026;2023-04-24T01:57:45;99999.99;;;21.63;35.48
69239;BME280;56349;51.816;-0.026;2023-04-24T02:00:11;99994.26;;;21.55;35.59
69239;BME280;56349;51.816;-0.026;2023-04-24T02:02:36;99991.61;;;21.50;35.67
69239;BME280;56349;51.816;-0.026;2023-04-24T02:05:02;99992.56;;;21.68;35.73
69239;BME280;56349;51.816;-0.026;2023-04-24T02:07:28;99993.63;;;21.40;35.83
69239;BME280;56349;51.816;-0.026;2023-04-24T02:09:54;99996.54;;;21.33;35.90
69239;BME280;56349;51.816;-0.026;2023-04-24T02:12:20;99997.73;;;21.48;36.00
69239;BME280;56349;51.816;-0.026;2023-04-24T02:14:46;99999.46;;;21.68;36.09
69239;BME280;56349;51.816;-0.026;2023-04-24T02:17:12;99997.95;;;21.36;36.18
69239;BME280;56349;51.816;-0.026;2023-04-24T02:19:38;99998.95;;;21.31;36.25
69239;BME280;56349;51.816;-0.026;2023-04-24T02:22:03;100001.39;;;21.27;36.32
69239;BME280;56349;51.816;-0.026;2023-04-24T02:24:29;100004.17;;;21.21;36.40
69239;BME280;56349;51.816;-0.026;2023-04-24T02:26:55;100005.89;;;21.44;36.45
69239;BME280;56349;51.816;-0.026;2023-04-24T02:29:21;100009.48;;;21.14;36.50
69239;BME280;56349;51.816;-0.026;2023-04-24T02:31:47;100008.27;;;21.09;36.56
69239;BME280;56349;51.816;-0.026;2023-04-24T02:34:13;100011.25;;;21.29;36.65
69239;BME280;56349;51.816;-0.026;2023-04-24T02:36:39;100015.34;;;20.98;36.72
69239;BME280;56349;51.816;-0.026;2023-04-24T02:39:05;100015.98;;;21.21;36.77
69239;BME280;56349;51.816;-0.026;2023-04-24T02:41:30;100018.85;;;20.90;36.83
69239;BME280;56349;51.816;-0.026;2023-04-24T02:43:56;100020.99;;;21.14;36.87
69239;BME280;56349;51.816;-0.026;2023-04-24T02:46:22;100026.16;;;21.09;36.94
69239;BME280;56349;51.816;-0.026;2023-04-24T02:48:48;100030.33;;;21.05;37.01
69239;BME280;56349;51.816;-0.026;2023-04-24T02:51:14;100032.86;;;21.23;37.05
69239;BME280;56349;51.816;-0.026;2023-04-24T02:53:40;100032.97;;;20.96;37.12
69239;BME280;56349;51.816;-0.026;2023-04-24T02:56:06;100029.47;;;20.92;37.16
69239;BME280;56349;51.816;-0.026;2023-04-24T02:58:32;100027.97;;;20.90;37.19
69239;BME280;56349;51.816;-0.026;2023-04-24T03:00:57;100029.02;;;20.59;37.23
69239;BME280;56349;51.816;-0.026;2023-04-24T03:03:24;100034.55;;;20.83;37.29
69239;BME280;56349;51.816;-0.026;2023-04-24T03:05:48;100035.12;;;20.79;37.34
69239;BME280;56349;51.816;-0.026;2023-04-24T03:08:14;100040.91;;;20.97;37.38
69239;BME280;56349;51.816;-0.026;2023-04-24T03:10:40;100049.68;;;20.72;37.43
69239;BME280;56349;51.816;-0.026;2023-04-24T03:13:06;100051.62;;;20.70;37.45
69239;BME280;56349;51.816;-0.026;2023-04-24T03:15:32;100051.90;;;20.68;37.47
69239;BME280;56349;51.816;-0.026;2023-04-24T03:17:58;100056.39;;;20.65;37.49
69239;BME280;56349;51.816;-0.026;2023-04-24T03:20:24;100061.24;;;20.63;37.52
69239;BME280;56349;51.816;-0.026;2023-04-24T03:22:49;100064.30;;;20.61;37.55
69239;BME280;56349;51.816;-0.026;2023-04-24T03:25:15;100067.75;;;20.60;37.57
69239;BME280;56349;51.816;-0.026;2023-04-24T03:27:40;100070.73;;;20.58;37.57
69239;BME280;56349;51.816;-0.026;2023-04-24T03:30:07;100077.76;;;20.57;37.60
69239;BME280;56349;51.816;-0.026;2023-04-24T03:32:32;100081.69;;;20.56;37.69
69239;BME280;56349;51.816;-0.026;2023-04-24T03:34:58;100085.78;;;20.60;37.81
69239;BME280;56349;51.816;-0.026;2023-04-24T03:37:24;100088.46;;;20.68;37.87
69239;BME280;56349;51.816;-0.026;2023-04-24T03:39:50;100092.44;;;20.83;37.84
69239;BME280;56349;51.816;-0.026;2023-04-24T03:42:16;100100.35;;;20.76;37.72
69239;BME280;56349;51.816;-0.026;2023-04-24T03:44:41;100094.49;;;21.25;37.55
69239;BME280;56349;51.816;-0.026;2023-04-24T03:47:07;100097.25;;;21.24;37.26
69239;BME280;56349;51.816;-0.026;2023-04-24T03:49:33;100098.37;;;21.24;36.93
69239;BME280;56349;51.816;-0.026;2023-04-24T03:51:59;100105.27;;;21.41;36.62
69239;BME280;56349;51.816;-0.026;2023-04-24T03:54:25;100107.36;;;21.73;36.39
69239;BME280;56349;51.816;-0.026;2023-04-24T03:56:51;100109.26;;;21.58;36.19
69239;BME280;56349;51.816;-0.026;2023-04-24T03:59:17;100110.92;;;21.61;36.04
69239;BME280;56349;51.816;-0.026;2023-04-24T04:01:42;100113.80;;;21.58;35.96
69239;BME280;56349;51.816;-0.026;2023-04-24T04:04:08;100119.08;;;21.52;35.91
69239;BME280;56349;51.816;-0.026;2023-04-24T04:06:34;100117.74;;;21.45;35.92
69239;BME280;56349;51.816;-0.026;2023-04-24T04:09:00;100126.53;;;21.59;35.93
69239;BME280;56349;51.816;-0.026;2023-04-24T04:11:26;100129.00;;;21.29;35.95
69239;BME280;56349;51.816;-0.026;2023-04-24T04:13:52;100135.71;;;21.20;35.99
69239;BME280;56349;51.816;-0.026;2023-04-24T04:16:18;100136.54;;;21.35;36.03
69239;BME280;56349;51.816;-0.026;2023-04-24T04:18:44;100143.55;;;21.27;36.06
69239;BME280;56349;51.816;-0.026;2023-04-24T04:21:10;100147.57;;;21.20;36.12
69239;BME280;56349;51.816;-0.026;2023-04-24T04:23:35;100153.56;;;21.12;36.16
69239;BME280;56349;51.816;-0.026;2023-04-24T04:26:01;100158.24;;;21.04;36.21
69239;BME280;56349;51.816;-0.026;2023-04-24T04:28:27;100157.63;;;20.96;36.28
69239;BME280;56349;51.816;-0.026;2023-04-24T04:30:53;100161.53;;;21.15;36.32
69239;BME280;56349;51.816;-0.026;2023-04-24T04:33:19;100165.96;;;21.08;36.39
69239;BME280;56349;51.816;-0.026;2023-04-24T04:35:45;100170.43;;;20.74;36.46
69239;BME280;56349;51.816;-0.026;2023-04-24T04:38:11;100177.49;;;20.68;36.51
69239;BME280;56349;51.816;-0.026;2023-04-24T04:40:36;100183.63;;;20.89;36.55
69239;BME280;56349;51.816;-0.026;2023-04-24T04:43:02;100187.15;;;20.56;36.61
69239;BME280;56349;51.816;-0.026;2023-04-24T04:45:28;100193.51;;;20.77;36.67
69239;BME280;56349;51.816;-0.026;2023-04-24T04:47:54;100201.03;;;20.71;36.75
69239;BME280;56349;51.816;-0.026;2023-04-24T04:50:20;100202.21;;;20.64;36.82
69239;BME280;56349;51.816;-0.026;2023-04-24T04:52:46;100203.60;;;20.59;36.87
69239;BME280;56349;51.816;-0.026;2023-04-24T04:55:12;100202.76;;;20.55;36.99
69239;BME280;56349;51.816;-0.026;2023-04-24T04:57:38;100208.67;;;20.49;37.12
69239;BME280;56349;51.816;-0.026;2023-04-24T05:00:06;100208.16;;;20.45;37.26
69239;BME280;56349;51.816;-0.026;2023-04-24T05:02:30;100211.08;;;20.65;37.44
69239;BME280;56349;51.816;-0.026;2023-04-24T05:04:55;100215.86;;;20.63;37.59
69239;BME280;56349;51.816;-0.026;2023-04-24T05:07:21;100217.08;;;20.41;37.76
69239;BME280;56349;51.816;-0.026;2023-04-24T05:09:47;100220.48;;;20.65;37.94
69239;BME280;56349;51.816;-0.026;2023-04-24T05:12:13;100222.47;;;20.46;38.08
69239;BME280;56349;51.816;-0.026;2023-04-24T05:14:39;100223.78;;;20.53;38.24
69239;BME280;56349;51.816;-0.026;2023-04-24T05:17:05;100222.99;;;20.56;38.38
69239;BME280;56349;51.816;-0.026;2023-04-24T05:19:31;100225.13;;;20.71;38.40
69239;BME280;56349;51.816;-0.026;2023-04-24T05:21:57;100227.80;;;20.82;38.40
69239;BME280;56349;51.816;-0.026;2023-04-24T05:24:23;100231.37;;;20.84;38.53
69239;BME280;56349;51.816;-0.026;2023-04-24T05:26:49;100238.06;;;20.84;38.67
69239;BME280;56349;51.816;-0.026;2023-04-24T05:29:15;100245.35;;;20.88;38.75
69239;BME280;56349;51.816;-0.026;2023-04-24T05:31:41;100247.18;;;20.91;38.83
69239;BME280;56349;51.816;-0.026;2023-04-24T05:34:07;100254.58;;;20.94;38.92
69239;BME280;56349;51.816;-0.026;2023-04-24T05:36:33;100258.36;;;20.97;38.96
69239;BME280;56349;51.816;-0.026;2023-04-24T05:38:59;100261.75;;;21.03;38.97
69239;BME280;56349;51.816;-0.026;2023-04-24T05:41:25;100262.60;;;21.08;38.98
69239;BME280;56349;51.816;-0.026;2023-04-24T05:43:50;100266.65;;;21.14;38.99
69239;BME280;56349;51.816;-0.026;2023-04-24T05:46:16;100267.59;;;21.19;38.95
69239;BME280;56349;51.816;-0.026;2023-04-24T05:48:42;100268.13;;;20.96;38.99
69239;BME280;56349;51.816;-0.026;2023-04-24T05:51:07;100268.05;;;21.01;39.01
69239;BME280;56349;51.816;-0.026;2023-04-24T05:53:33;100268.15;;;21.05;39.03
69239;BME280;56349;51.816;-0.026;2023-04-24T05:55:58;100271.45;;;21.35;39.03
69239;BME280;56349;51.816;-0.026;2023-04-24T05:58:24;100276.47;;;21.39;39.05
69239;BME280;56349;51.816;-0.026;2023-04-24T06:00:50;100279.37;;;21.43;39.05
69239;BME280;56349;51.816;-0.026;2023-04-24T06:03:17;100277.03;;;21.44;38.41
69239;BME280;56349;51.816;-0.026;2023-04-24T06:05:42;100280.14;;;21.49;38.67
69239;BME280;56349;51.816;-0.026;2023-04-24T06:08:09;100283.53;;;21.29;38.87
69239;BME280;56349;51.816;-0.026;2023-04-24T06:10:34;100285.22;;;21.41;39.04
69239;BME280;56349;51.816;-0.026;2023-04-24T06:12:59;100280.09;;;21.35;38.87
69239;BME280;56349;51.816;-0.026;2023-04-24T06:15:26;100279.66;;;21.62;38.77
69239;BME280;56349;51.816;-0.026;2023-04-24T06:17:51;100281.35;;;21.92;38.62
69239;BME280;56349;51.816;-0.026;2023-04-24T06:20:17;100279.27;;;22.02;38.40
69239;BME280;56349;51.816;-0.026;2023-04-24T06:22:43;100273.26;;;22.59;38.02
69239;BME280;56349;51.816;-0.026;2023-04-24T06:25:12;100275.99;;;22.48;37.72
69239;BME280;56349;51.816;-0.026;2023-04-24T06:27:34;100274.47;;;22.87;37.24
69239;BME280;56349;51.816;-0.026;2023-04-24T06:29:59;100279.94;;;23.28;36.76
69239;BME280;56349;51.816;-0.026;2023-04-24T06:32:28;100279.84;;;23.41;36.32
69239;BME280;56349;51.816;-0.026;2023-04-24T06:34:51;100274.58;;;23.77;35.87
69239;BME280;56349;51.816;-0.026;2023-04-24T06:37:16;100280.16;;;23.65;35.42
69239;BME280;56349;51.816;-0.026;2023-04-24T06:39:43;100286.40;;;24.18;35.02
69239;BME280;56349;51.816;-0.026;2023-04-24T06:42:08;100286.69;;;24.27;34.64
69239;BME280;56349;51.816;-0.026;2023-04-24T06:44:33;100290.84;;;24.57;34.25
69239;BME280;56349;51.816;-0.026;2023-04-24T06:46:58;100289.66;;;24.64;33.87
69239;BME280;56349;51.816;-0.026;2023-04-24T06:49:24;100288.76;;;24.90;33.50
69239;BME280;56349;51.816;-0.026;2023-04-24T06:51:51;100289.84;;;25.12;33.20
69239;BME280;56349;51.816;-0.026;2023-04-24T06:54:16;100296.33;;;25.32;32.92
69239;BME280;56349;51.816;-0.026;2023-04-24T06:56:42;100302.93;;;25.48;32.66
69239;BME280;56349;51.816;-0.026;2023-04-24T06:59:07;100299.94;;;25.34;32.35
69239;BME280;56349;51.816;-0.026;2023-04-24T07:01:33;100304.89;;;25.14;32.11
69239;BME280;56349;51.816;-0.026;2023-04-24T07:03:59;100307.72;;;25.31;31.96
69239;BME280;56349;51.816;-0.026;2023-04-24T07:06:25;100304.87;;;25.21;31.83
69239;BME280;56349;51.816;-0.026;2023-04-24T07:08:51;100308.79;;;25.34;31.76
69239;BME280;56349;51.816;-0.026;2023-04-24T07:11:17;100309.49;;;25.16;31.75
69239;BME280;56349;51.816;-0.026;2023-04-24T07:13:43;100312.67;;;24.93;31.78
69239;BME280;56349;51.816;-0.026;2023-04-24T07:16:09;100317.91;;;25.12;31.88
69239;BME280;56349;51.816;-0.026;2023-04-24T07:18:35;100317.25;;;24.44;31.99
69239;BME280;56349;51.816;-0.026;2023-04-24T07:21:01;100315.85;;;24.19;32.13
69239;BME280;56349;51.816;-0.026;2023-04-24T07:23:27;100316.15;;;24.16;32.26
69239;BME280;56349;51.816;-0.026;2023-04-24T07:25:53;100316.77;;;24.14;32.44
69239;BME280;56349;51.816;-0.026;2023-04-24T07:28:19;100316.74;;;23.91;32.60
69239;BME280;56349;51.816;-0.026;2023-04-24T07:30:45;100316.90;;;23.71;32.77
69239;BME280;56349;51.816;-0.026;2023-04-24T07:33:11;100315.94;;;23.51;32.93
69239;BME280;56349;51.816;-0.026;2023-04-24T07:35:36;100316.99;;;23.59;32.96
69239;BME280;56349;51.816;-0.026;2023-04-24T07:38:02;100313.43;;;23.37;33.17
69239;BME280;56349;51.816;-0.026;2023-04-24T07:40:28;100311.08;;;23.41;33.38
69239;BME280;56349;51.816;-0.026;2023-04-24T07:42:54;100311.03;;;23.28;33.53
69239;BME280;56349;51.816;-0.026;2023-04-24T07:45:20;100314.06;;;23.16;33.75
69239;BME280;56349;51.816;-0.026;2023-04-24T07:47:46;100316.44;;;23.02;33.94
69239;BME280;56349;51.816;-0.026;2023-04-24T07:50:12;100315.11;;;22.90;34.17
69239;BME280;56349;51.816;-0.026;2023-04-24T07:52:38;100318.14;;;23.04;34.34
69239;BME280;56349;51.816;-0.026;2023-04-24T07:55:05;100316.78;;;23.14;34.55
69239;BME280;56349;51.816;-0.026;2023-04-24T07:57:29;100316.26;;;22.56;34.65
69239;BME280;56349;51.816;-0.026;2023-04-24T07:59:56;100319.06;;;22.50;34.91
69239;BME280;56349;51.816;-0.026;2023-04-24T08:02:22;100323.29;;;22.69;35.26
69239;BME280;56349;51.816;-0.026;2023-04-24T08:04:47;100325.39;;;22.33;35.26
69239;BME280;56349;51.816;-0.026;2023-04-24T08:07:13;100335.11;;;22.06;31.26
69239;BME280;56349;51.816;-0.026;2023-04-24T08:09:38;100337.05;;;21.92;29.59
69239;BME280;56349;51.816;-0.026;2023-04-24T08:12:05;100337.19;;;21.75;28.74
69239;BME280;56349;51.816;-0.026;2023-04-24T08:14:30;100344.01;;;21.43;28.15
69239;BME280;56349;51.816;-0.026;2023-04-24T08:16:56;100336.60;;;21.12;27.50
69239;BME280;56349;51.816;-0.026;2023-04-24T08:19:22;100337.10;;;20.86;27.25
69239;BME280;56349;51.816;-0.026;2023-04-24T08:21:53;100334.19;;;21.12;27.14
69239;BME280;56349;51.816;-0.026;2023-04-24T08:24:18;100336.40;;;21.04;28.03
69239;BME280;56349;51.816;-0.026;2023-04-24T08:26:39;100333.41;;;20.80;29.56
69239;BME280;56349;51.816;-0.026;2023-04-24T08:29:04;100332.91;;;20.84;30.41
69239;BME280;56349;51.816;-0.026;2023-04-24T08:31:29;100331.35;;;21.12;30.97
69239;BME280;56349;51.816;-0.026;2023-04-24T08:33:55;100332.33;;;20.87;31.31
69239;BME280;56349;51.816;-0.026;2023-04-24T08:36:21;100330.89;;;20.89;31.49
69239;BME280;56349;51.816;-0.026;2023-04-24T08:38:47;100329.84;;;20.88;30.22
69239;BME280;56349;51.816;-0.026;2023-04-24T08:41:14;100335.98;;;21.11;30.45
69239;BME280;56349;51.816;-0.026;2023-04-24T08:43:39;100339.36;;;21.13;30.78
69239;BME280;56349;51.816;-0.026;2023-04-24T08:46:05;100342.24;;;21.16;30.94
69239;BME280;56349;51.816;-0.026;2023-04-24T08:48:30;100345.02;;;20.90;30.84
69239;BME280;56349;51.816;-0.026;2023-04-24T08:50:57;100344.77;;;20.90;30.93
69239;BME280;56349;51.816;-0.026;2023-04-24T08:53:21;100349.20;;;20.91;30.84
69239;BME280;56349;51.816;-0.026;2023-04-24T08:55:48;100346.32;;;21.19;30.94
69239;BME280;56349;51.816;-0.026;2023-04-24T08:58:13;100352.53;;;21.20;30.79
69239;BME280;56349;51.816;-0.026;2023-04-24T09:00:39;100349.08;;;21.20;30.33
69239;BME280;56349;51.816;-0.026;2023-04-24T09:03:05;100348.62;;;21.21;30.70
69239;BME280;56349;51.816;-0.026;2023-04-24T09:05:30;100354.98;;;20.92;30.39
69239;BME280;56349;51.816;-0.026;2023-04-24T09:07:56;100354.07;;;20.89;30.36
69239;BME280;56349;51.816;-0.026;2023-04-24T09:10:23;100357.93;;;20.85;30.26
69239;BME280;56349;51.816;-0.026;2023-04-24T09:12:46;100356.68;;;21.10;30.35
69239;BME280;56349;51.816;-0.026;2023-04-24T09:15:13;100359.44;;;21.08;30.77
69239;BME280;56349;51.816;-0.026;2023-04-24T09:17:39;100367.40;;;20.79;31.14
69239;BME280;56349;51.816;-0.026;2023-04-24T09:20:05;100365.55;;;21.06;31.30
69239;BME280;56349;51.816;-0.026;2023-04-24T09:22:31;100368.20;;;21.08;31.44
69239;BME280;56349;51.816;-0.026;2023-04-24T09:25:02;100369.60;;;20.82;31.27
69239;BME280;56349;51.816;-0.026;2023-04-24T09:27:23;100373.67;;;20.79;31.03
69239;BME280;56349;51.816;-0.026;2023-04-24T09:29:55;100372.55;;;21.04;30.72
69239;BME280;56349;51.816;-0.026;2023-04-24T09:32:18;100373.96;;;21.00;30.42
69239;BME280;56349;51.816;-0.026;2023-04-24T09:34:38;100377.44;;;20.99;30.21
69239;BME280;56349;51.816;-0.026;2023-04-24T09:37:04;100380.97;;;20.68;30.39
69239;BME280;56349;51.816;-0.026;2023-04-24T09:39:29;100385.26;;;20.66;30.79
69239;BME280;56349;51.816;-0.026;2023-04-24T09:41:57;100390.83;;;20.92;30.92
69239;BME280;56349;51.816;-0.026;2023-04-24T09:44:23;100392.37;;;20.92;31.56
69239;BME280;56349;51.816;-0.026;2023-04-24T09:46:51;100394.79;;;20.90;32.17
69239;BME280;56349;51.816;-0.026;2023-04-24T09:49:15;100393.30;;;20.77;29.71
69239;BME280;56349;51.816;-0.026;2023-04-24T09:51:40;100398.91;;;20.60;28.27
69239;BME280;56349;51.816;-0.026;2023-04-24T09:54:13;100401.01;;;20.69;27.47
69239;BME280;56349;51.816;-0.026;2023-04-24T09:56:33;100402.74;;;20.67;27.38
69239;BME280;56349;51.816;-0.026;2023-04-24T10:01:30;100408.60;;;20.80;27.78
69239;BME280;56349;51.816;-0.026;2023-04-24T10:03:52;100409.55;;;20.87;28.70
69239;BME280;56349;51.816;-0.026;2023-04-24T10:06:13;100415.08;;;21.15;30.68
69239;BME280;56349;51.816;-0.026;2023-04-24T10:08:39;100422.27;;;21.60;29.64
69239;BME280;56349;51.816;-0.026;2023-04-24T10:11:05;100425.49;;;21.80;29.19
69239;BME280;56349;51.816;-0.026;2023-04-24T10:13:30;100421.96;;;22.01;28.96
69239;BME280;56349;51.816;-0.026;2023-04-24T10:15:56;100425.88;;;22.75;28.77
69239;BME280;56349;51.816;-0.026;2023-04-24T10:18:23;100426.81;;;22.89;28.64
69239;BME280;56349;51.816;-0.026;2023-04-24T10:20:48;100428.37;;;23.30;28.50
69239;BME280;56349;51.816;-0.026;2023-04-24T10:23:15;100435.52;;;23.49;28.33
69239;BME280;56349;51.816;-0.026;2023-04-24T10:25:40;100435.62;;;23.58;28.11
69239;BME280;56349;51.816;-0.026;2023-04-24T10:28:05;100438.59;;;23.90;27.95
69239;BME280;56349;51.816;-0.026;2023-04-24T10:30:33;100435.25;;;24.20;27.70
69239;BME280;56349;51.816;-0.026;2023-04-24T10:32:56;100436.75;;;24.24;27.56
69239;BME280;56349;51.816;-0.026;2023-04-24T10:35:23;100434.85;;;24.31;27.36
69239;BME280;56349;51.816;-0.026;2023-04-24T10:37:53;100432.75;;;24.57;27.20
69239;BME280;56349;51.816;-0.026;2023-04-24T10:40:17;100431.06;;;24.80;27.03
69239;BME280;56349;51.816;-0.026;2023-04-24T10:42:40;100432.60;;;25.03;26.81
69239;BME280;56349;51.816;-0.026;2023-04-24T10:45:05;100430.12;;;24.81;26.63
69239;BME280;56349;51.816;-0.026;2023-04-24T10:47:39;100427.56;;;25.27;26.48
69239;BME280;56349;51.816;-0.026;2023-04-24T10:49:59;100431.13;;;25.06;26.36
69239;BME280;56349;51.816;-0.026;2023-04-24T10:52:21;100435.05;;;25.50;26.22
69239;BME280;56349;51.816;-0.026;2023-04-24T10:54:47;100435.75;;;25.72;26.11
69239;BME280;56349;51.816;-0.026;2023-04-24T10:59:39;100439.70;;;25.78;25.90
69239;BME280;56349;51.816;-0.026;2023-04-24T11:02:07;100442.84;;;25.68;25.83
69239;BME280;56349;51.816;-0.026;2023-04-24T11:04:32;100444.48;;;25.82;25.76
69239;BME280;56349;51.816;-0.026;2023-04-24T11:06:57;100443.33;;;25.98;25.73
69239;BME280;56349;51.816;-0.026;2023-04-24T11:09:23;100441.07;;;26.15;25.71
69239;BME280;56349;51.816;-0.026;2023-04-24T11:11:50;100438.76;;;26.32;25.67
69239;BME280;56349;51.816;-0.026;2023-04-24T11:14:18;100428.39;;;26.45;25.66
69239;BME280;56349;51.816;-0.026;2023-04-24T11:16:47;100432.61;;;26.36;25.63
69239;BME280;56349;51.816;-0.026;2023-04-24T11:19:07;100436.46;;;26.69;25.55
69239;BME280;56349;51.816;-0.026;2023-04-24T11:21:39;100440.54;;;26.80;25.32
69239;BME280;56349;51.816;-0.026;2023-04-24T11:23:58;100443.85;;;26.86;25.27
69239;BME280;56349;51.816;-0.026;2023-04-24T11:26:25;100444.60;;;26.70;25.39
69239;BME280;56349;51.816;-0.026;2023-04-24T11:28:50;100446.05;;;26.81;25.43
69239;BME280;56349;51.816;-0.026;2023-04-24T11:33:41;100449.43;;;27.18;25.58
69239;BME280;56349;51.816;-0.026;2023-04-24T11:36:07;100445.49;;;27.23;25.74
69239;BME280;56349;51.816;-0.026;2023-04-24T11:38:33;100450.49;;;27.03;25.90
69239;BME280;56349;51.816;-0.026;2023-04-24T11:41:01;100450.78;;;27.10;25.97
69239;BME280;56349;51.816;-0.026;2023-04-24T11:43:24;100453.37;;;26.94;25.85
69239;BME280;56349;51.816;-0.026;2023-04-24T11:45:50;100450.04;;;27.28;25.98
69239;BME280;56349;51.816;-0.026;2023-04-24T11:48:19;100453.39;;;27.09;25.79
69239;BME280;56349;51.816;-0.026;2023-04-24T11:50:47;100452.87;;;27.11;25.69
69239;BME280;56349;51.816;-0.026;2023-04-24T11:53:07;100457.12;;;27.13;25.94
69239;BME280;56349;51.816;-0.026;2023-04-24T11:55:33;100457.75;;;27.18;26.02
69239;BME280;56349;51.816;-0.026;2023-04-24T11:58:00;100451.72;;;27.24;26.05
69239;BME280;56349;51.816;-0.026;2023-04-24T12:00:27;100454.10;;;27.31;26.10
69239;BME280;56349;51.816;-0.026;2023-04-24T12:02:51;100454.72;;;27.15;26.05
69239;BME280;56349;51.816;-0.026;2023-04-24T12:05:20;100457.03;;;27.37;26.11
69239;BME280;56349;51.816;-0.026;2023-04-24T12:07:42;100460.32;;;27.43;26.12
69239;BME280;56349;51.816;-0.026;2023-04-24T12:10:09;100459.37;;;27.53;25.97
69239;BME280;56349;51.816;-0.026;2023-04-24T12:12:34;100459.98;;;27.59;25.64
69239;BME280;56349;51.816;-0.026;2023-04-24T12:14:59;100464.12;;;27.61;25.68
69239;BME280;56349;51.816;-0.026;2023-04-24T12:17:26;100462.70;;;27.41;25.73
69239;BME280;56349;51.816;-0.026;2023-04-24T12:19:50;100462.00;;;27.66;25.78
69239;BME280;56349;51.816;-0.026;2023-04-24T12:22:15;100463.17;;;27.69;25.84
69239;BME280;56349;51.816;-0.026;2023-04-24T12:27:06;100462.07;;;27.73;25.85
69239;BME280;56349;51.816;-0.026;2023-04-24T12:29:32;100454.67;;;27.52;25.68
69239;BME280;56349;51.816;-0.026;2023-04-24T12:31:58;100452.01;;;27.49;25.75
69239;BME280;56349;51.816;-0.026;2023-04-24T12:34:25;100452.24;;;27.70;25.78
69239;BME280;56349;51.816;-0.026;2023-04-24T12:36:49;100450.88;;;27.20;23.81
69239;BME280;56349;51.816;-0.026;2023-04-24T12:39:15;100453.83;;;27.41;22.59
69239;BME280;56349;51.816;-0.026;2023-04-24T12:44:11;100456.71;;;26.77;21.15
69239;BME280;56349;51.816;-0.026;2023-04-24T12:46:31;100452.41;;;26.74;21.04